createdAt,value
2022-11-18T00:00:05.188Z,18.85
2022-11-18T00:05:06.900Z,19.13
2022-11-18T00:10:08.769Z,18.65
2022-11-18T00:15:10.366Z,20.42
2022-11-18T00:20:11.954Z,20.65
2022-11-18T00:25:13.621Z,19.55
2022-11-18T00:30:15.285Z,20.52
2022-11-18T00:35:16.918Z,20.17
2022-11-18T00:40:18.792Z,20.80
2022-11-18T00:45:21.449Z,21.52
2022-11-18T00:50:23.136Z,20.98
2022-11-18T00:55:24.759Z,20.38
2022-11-18T01:00:26.408Z,21.65
2022-11-18T01:05:28.029Z,22.27
2022-11-18T01:10:29.709Z,22.77
2022-11-18T01:15:31.389Z,22.23
2022-11-18T01:20:34.528Z,23.92
2022-11-18T01:25:44.083Z,21.63
2022-11-18T01:30:46.273Z,22.25
2022-11-18T01:35:47.930Z,24.08
2022-11-18T01:40:49.663Z,24.35
2022-11-18T01:45:53.997Z,22.63
2022-11-18T01:51:00.838Z,24.33
2022-11-18T01:56:06.907Z,22.73
2022-11-18T02:01:08.693Z,22.73
2022-11-18T02:06:11.571Z,21.52
2022-11-18T02:11:33.880Z,21.75
2022-11-18T02:16:38.442Z,22.20
2022-11-18T02:22:23.576Z,23.40
2022-11-18T02:27:31.155Z,22.58
2022-11-18T02:32:42.136Z,21.70
2022-11-18T02:37:59.101Z,21.40
2022-11-18T02:48:10.432Z,22.60
2022-11-18T02:53:16.164Z,22.65
2022-11-18T02:58:20.698Z,22.20
2022-11-18T03:03:35.465Z,22.15
2022-11-18T03:08:53.825Z,21.27
2022-11-18T03:14:18.037Z,21.55
2022-11-18T03:19:34.549Z,20.90
2022-11-18T03:24:43.868Z,21.15
2022-11-18T03:29:59.479Z,20.48
2022-11-18T03:35:09.912Z,22.30
2022-11-18T03:40:39.062Z,21.15
2022-11-18T03:46:07.803Z,21.23
2022-11-18T03:51:13.569Z,21.50
2022-11-18T03:56:19.579Z,20.90
2022-11-18T04:01:29.466Z,20.30
2022-11-18T04:06:39.654Z,20.20
2022-11-18T04:12:02.560Z,21.38
2022-11-18T04:17:16.095Z,22.95
2022-11-18T04:22:19.271Z,22.48
2022-11-18T04:27:20.864Z,22.20
2022-11-18T04:32:22.439Z,21.38
2022-11-18T04:37:24.332Z,21.65
2022-11-18T04:42:26.434Z,22.48
2022-11-18T04:47:28.088Z,21.42
2022-11-18T04:52:29.913Z,22.33
2022-11-18T04:57:31.490Z,24.77
2022-11-18T05:02:33.126Z,24.60
2022-11-18T05:07:34.836Z,25.15
2022-11-18T05:12:48.819Z,24.33
2022-11-18T05:17:50.825Z,25.30
2022-11-18T05:22:52.545Z,26.38
2022-11-18T05:27:54.173Z,27.13
2022-11-18T05:32:55.798Z,25.02
2022-11-18T05:37:57.509Z,23.83
2022-11-18T05:43:11.213Z,24.08
2022-11-18T05:48:12.861Z,24.13
2022-11-18T05:53:15.547Z,23.58
2022-11-18T06:04:59.547Z,23.65
2022-11-18T06:10:05.713Z,24.52
2022-11-18T06:16:03.753Z,24.48
2022-11-18T06:21:06.018Z,28.08
2022-11-18T06:26:09.400Z,24.42
2022-11-18T06:31:11.095Z,25.05
2022-11-18T06:36:13.315Z,23.27
2022-11-18T06:41:15.079Z,22.80
2022-11-18T06:46:37.136Z,23.55
2022-11-18T06:51:40.207Z,26.25
2022-11-18T06:56:41.908Z,23.80
2022-11-18T07:01:43.626Z,31.48
2022-11-18T07:06:45.363Z,19.70
2022-11-18T07:11:47.028Z,20.35
2022-11-18T07:16:48.645Z,21.38
2022-11-18T07:21:50.336Z,21.17
2022-11-18T07:26:54.203Z,19.33
2022-11-18T07:31:56.068Z,18.90
2022-11-18T07:36:57.797Z,19.50
2022-11-18T07:41:59.484Z,20.30
2022-11-18T07:47:01.297Z,19.90
2022-11-18T07:52:03.150Z,20.55
2022-11-18T07:57:05.018Z,19.58
2022-11-18T08:02:08.351Z,17.70
2022-11-18T08:07:10.517Z,19.35
2022-11-18T08:12:12.324Z,17.92
2022-11-18T08:17:13.962Z,16.92
2022-11-18T08:22:18.760Z,16.40
2022-11-18T08:27:20.455Z,17.50
2022-11-18T08:32:22.114Z,18.58
2022-11-18T08:37:23.761Z,18.88
2022-11-18T08:42:28.728Z,19.92
2022-11-18T08:47:35.293Z,19.35
2022-11-18T08:52:37.352Z,19.27
2022-11-18T08:57:39.061Z,19.20
2022-11-18T09:02:40.709Z,19.65
2022-11-18T09:07:42.328Z,21.52
2022-11-18T09:12:44.164Z,24.80
2022-11-18T09:17:45.819Z,22.92
2022-11-18T09:22:47.440Z,24.80
2022-11-18T09:27:49.105Z,26.33
2022-11-18T09:32:50.687Z,23.20
2022-11-18T09:37:52.282Z,24.25
2022-11-18T09:43:23.269Z,23.83
2022-11-18T09:48:48.344Z,24.63
2022-11-18T09:53:50.002Z,25.95
2022-11-18T09:58:51.731Z,26.80
2022-11-18T10:03:53.407Z,28.00
2022-11-18T10:09:26.122Z,28.63
2022-11-18T10:14:43.438Z,30.00
2022-11-18T10:24:57.003Z,30.48
2022-11-18T10:29:59.025Z,30.27
2022-11-18T10:35:00.892Z,28.60
2022-11-18T10:40:05.555Z,26.55
2022-11-18T10:45:25.753Z,25.92
2022-11-18T10:50:29.261Z,23.23
2022-11-18T10:55:31.285Z,21.10
2022-11-18T11:00:42.972Z,19.52
2022-11-18T11:05:44.624Z,18.23
2022-11-18T11:10:57.035Z,16.38
2022-11-18T11:16:03.469Z,19.33
2022-11-18T11:21:19.351Z,18.60
2022-11-18T11:32:20.526Z,22.38
2022-11-18T11:37:40.331Z,23.55
2022-11-18T11:42:50.469Z,28.55
2022-11-18T11:48:18.398Z,25.40
2022-11-18T11:53:41.638Z,26.42
2022-11-18T11:58:55.342Z,26.65
2022-11-18T12:04:16.041Z,26.30
2022-11-18T12:09:32.947Z,29.35
2022-11-18T12:14:46.087Z,30.58
2022-11-18T12:19:47.810Z,29.85
2022-11-18T12:24:49.522Z,30.50
2022-11-18T12:29:51.100Z,34.15
2022-11-18T12:35:06.696Z,34.35
2022-11-18T12:41:13.939Z,36.95
2022-11-18T13:11:37.444Z,41.55
2022-11-18T13:16:57.967Z,40.90
2022-11-18T13:22:20.680Z,41.33
2022-11-18T13:27:36.738Z,40.88
2022-11-18T13:32:46.997Z,39.25
2022-11-18T13:37:57.801Z,40.90
2022-11-18T13:42:59.543Z,44.83
2022-11-18T13:48:08.330Z,40.30
2022-11-18T13:53:19.043Z,39.25
2022-11-18T14:04:27.509Z,37.75
2022-11-18T14:09:30.998Z,39.60
2022-11-18T14:14:41.315Z,38.75
2022-11-18T14:19:43.790Z,39.47
2022-11-18T14:24:57.701Z,40.47
2022-11-18T14:29:59.659Z,40.25
2022-11-18T14:35:02.000Z,38.83
2022-11-18T14:40:03.681Z,35.75
2022-11-18T14:45:05.970Z,36.95
2022-11-18T14:50:14.947Z,35.42
2022-11-18T14:55:16.817Z,37.28
2022-11-18T15:00:19.643Z,35.67
2022-11-18T15:05:21.322Z,36.05
2022-11-18T15:10:23.100Z,36.00
2022-11-18T15:15:24.959Z,37.40
2022-11-18T15:20:26.950Z,38.17
2022-11-18T15:25:28.647Z,35.10
2022-11-18T15:30:30.260Z,34.75
2022-11-18T15:35:32.016Z,36.20
2022-11-18T15:40:33.748Z,35.92
2022-11-18T15:45:35.372Z,37.10
2022-11-18T15:50:37.157Z,35.20
2022-11-18T15:55:39.151Z,36.03
2022-11-18T16:00:45.156Z,38.95
2022-11-18T16:05:47.275Z,37.20
2022-11-18T16:11:07.475Z,37.35
2022-11-18T16:16:19.078Z,37.95
2022-11-18T16:21:21.782Z,38.08
2022-11-18T16:26:24.811Z,38.70
2022-11-18T16:31:43.635Z,42.60
2022-11-18T16:36:48.307Z,39.15
2022-11-18T16:42:07.240Z,38.15
2022-11-18T16:47:14.969Z,39.63
2022-11-18T16:57:18.889Z,33.63
2022-11-18T17:02:20.630Z,34.03
2022-11-18T17:07:22.478Z,30.15
2022-11-18T17:12:24.132Z,30.60
2022-11-18T17:17:25.794Z,30.92
2022-11-18T17:22:27.600Z,29.48
2022-11-18T17:27:29.356Z,27.83
2022-11-18T17:32:31.359Z,27.52
2022-11-18T17:37:33.796Z,27.63
2022-11-18T17:42:35.418Z,25.75
2022-11-18T17:47:37.002Z,24.08
2022-11-18T17:52:38.874Z,24.83
2022-11-18T17:57:40.575Z,20.63
2022-11-18T18:02:42.476Z,20.83
2022-11-18T18:07:44.247Z,19.50
2022-11-18T18:13:05.082Z,20.63
2022-11-18T18:18:06.816Z,18.83
2022-11-18T18:23:08.785Z,16.92
2022-11-18T18:28:10.377Z,17.63
2022-11-18T18:33:12.264Z,17.05
2022-11-18T18:38:13.899Z,14.82
2022-11-18T18:43:15.571Z,14.85
2022-11-18T18:48:17.229Z,14.45
2022-11-18T18:53:19.110Z,13.95
2022-11-18T18:58:20.812Z,12.73
2022-11-18T19:03:23.840Z,12.85
2022-11-18T19:08:25.557Z,11.85
2022-11-18T19:13:28.514Z,11.95
2022-11-18T19:18:34.556Z,13.10
2022-11-18T19:23:36.345Z,9.52
2022-11-18T19:28:37.984Z,9.50
2022-11-18T19:33:39.744Z,8.65
2022-11-18T19:38:41.964Z,9.30
2022-11-18T19:43:43.717Z,8.20
2022-11-18T19:48:49.101Z,8.75
2022-11-18T19:53:52.735Z,8.00
2022-11-18T19:58:59.006Z,9.00
2022-11-18T20:04:05.738Z,10.95
2022-11-18T20:09:08.371Z,9.35
2022-11-18T20:14:13.505Z,8.90
2022-11-18T20:19:17.279Z,9.25
2022-11-18T20:24:19.701Z,9.57
2022-11-18T20:29:21.828Z,8.90
2022-11-18T20:34:24.356Z,8.05
2022-11-18T20:39:26.181Z,9.80
2022-11-18T20:44:27.976Z,9.85
2022-11-18T20:49:29.699Z,8.75
2022-11-18T20:54:31.463Z,9.68
2022-11-18T20:59:33.131Z,10.27
2022-11-18T21:04:34.917Z,9.43
2022-11-18T21:09:36.823Z,8.82
2022-11-18T21:14:38.586Z,10.90
2022-11-18T21:19:42.555Z,10.85
2022-11-18T21:29:49.985Z,10.13
2022-11-18T21:34:51.744Z,10.38
2022-11-18T21:39:53.395Z,11.30
2022-11-18T21:44:55.169Z,10.98
2022-11-18T21:49:56.864Z,11.60
2022-11-18T21:54:58.641Z,11.52
2022-11-18T22:00:00.362Z,10.30
2022-11-18T22:05:06.628Z,11.57
2022-11-18T22:10:08.806Z,11.68
2022-11-18T22:15:11.298Z,10.55
2022-11-18T22:20:13.565Z,11.48
2022-11-18T22:25:15.335Z,10.20
2022-11-18T22:30:17.087Z,10.63
2022-11-18T22:35:18.856Z,10.63
2022-11-18T22:40:20.578Z,10.82
2022-11-18T22:45:22.520Z,11.45
2022-11-18T22:50:24.205Z,11.40
2022-11-18T22:55:25.841Z,12.20
2022-11-18T23:00:27.525Z,10.27
2022-11-18T23:05:29.187Z,11.23
2022-11-18T23:10:30.889Z,11.27
2022-11-18T23:15:33.309Z,11.00
2022-11-18T23:20:34.967Z,10.13
2022-11-18T23:25:36.622Z,10.05
2022-11-18T23:30:38.235Z,10.98
2022-11-18T23:35:39.948Z,10.63
2022-11-18T23:40:41.638Z,11.00
2022-11-18T23:45:43.419Z,11.02
2022-11-18T23:50:59.751Z,10.23
2022-11-18T23:56:04.171Z,10.57
